Time;durP1;ratioP1;P1;durP2;ratioP2;P2;SDS_P1;SDS_P2;PMS_P1;PMS_P2;Temp;Humidity;BMP_temperature;BMP_pressure;BME280_temperature;BME280_humidity;BME280_pressure;Samples;Min_cycle;Max_cycle;Signal;HPM_P1;HPM_P2
2023/05/30 00:00:50;;;;;;;15.20;8.98;;;;;;;14.08;100.00;97600.81;5052219;28;20127;-82
2023/05/30 00:03:17;;;;;;;17.10;9.45;;;;;;;14.05;100.00;97603.72;5057618;28;20477;-81
2023/05/30 00:05:43;;;;;;;21.23;9.98;;;;;;;14.02;100.00;97605.78;5058755;28;20028;-81
2023/05/30 00:08:08;;;;;;;23.48;10.05;;;;;;;14.02;100.00;97600.41;5063169;28;20032;-80
2023/05/30 00:10:34;;;;;;;22.55;9.70;;;;;;;14.04;100.00;97607.38;5053990;28;20147;-81
2023/05/30 00:12:59;;;;;;;18.48;10.15;;;;;;;14.02;100.00;97609.34;5068661;28;20422;-80
2023/05/30 00:15:25;;;;;;;39.35;10.93;;;;;;;14.05;100.00;97610.94;5041417;28;20039;-81
2023/05/30 00:17:52;;;;;;;37.85;10.27;;;;;;;14.06;100.00;97604.56;5056262;28;20535;-80
2023/05/30 00:20:19;;;;;;;25.23;10.02;;;;;;;14.09;100.00;97617.78;5070627;28;20030;-80
2023/05/30 00:22:45;;;;;;;19.15;9.80;;;;;;;14.15;100.00;97614.63;5061121;28;20024;-81
2023/05/30 00:25:16;;;;;;;27.73;10.32;;;;;;;14.20;100.00;97620.53;5042763;28;20033;-81
2023/05/30 00:27:41;;;;;;;17.88;9.65;;;;;;;14.24;100.00;97621.16;5060356;28;20029;-81
2023/05/30 00:30:33;;;;;;;22.25;9.30;;;;;;;14.29;100.00;97627.91;5066498;28;20028;-80
2023/05/30 00:32:59;;;;;;;20.63;10.82;;;;;;;14.29;100.00;97619.84;5062205;28;20025;-80
2023/05/30 00:35:24;;;;;;;30.15;11.35;;;;;;;14.39;100.00;97620.91;5070762;28;20412;-80
2023/05/30 00:37:50;;;;;;;21.02;9.98;;;;;;;14.43;100.00;97616.97;5045802;28;20016;-79
2023/05/30 00:40:15;;;;;;;29.20;10.43;;;;;;;14.50;100.00;97618.25;5072600;28;20021;-81
2023/05/30 00:42:41;;;;;;;36.22;10.23;;;;;;;14.53;100.00;97626.06;5067064;28;20543;-80
2023/05/30 00:45:07;;;;;;;26.45;10.85;;;;;;;14.54;100.00;97627.81;5057320;28;20048;-80
2023/05/30 00:47:32;;;;;;;24.08;11.18;;;;;;;14.53;100.00;97631.47;5059889;28;20506;-80
2023/05/30 00:49:58;;;;;;;24.65;10.43;;;;;;;14.52;100.00;97628.88;5049999;28;20025;-80
2023/05/30 00:52:24;;;;;;;25.05;10.35;;;;;;;14.48;100.00;97624.72;5052386;28;20525;-80
2023/05/30 00:54:50;;;;;;;16.30;9.88;;;;;;;14.47;100.00;97623.00;5056667;28;20036;-80
2023/05/30 00:57:16;;;;;;;19.27;10.02;;;;;;;14.47;100.00;97618.47;5064495;28;20027;-80
2023/05/30 00:59:43;;;;;;;25.52;9.35;;;;;;;14.48;100.00;97622.88;5058419;28;20488;-81
2023/05/30 01:02:08;;;;;;;19.90;9.05;;;;;;;14.51;100.00;97619.97;5049253;28;20036;-81
2023/05/30 01:04:34;;;;;;;24.52;10.13;;;;;;;14.57;100.00;97618.63;5071033;28;20024;-79
2023/05/30 01:06:59;;;;;;;20.40;10.43;;;;;;;14.60;100.00;97618.38;5073831;28;20029;-80
2023/05/30 01:09:25;;;;;;;25.10;10.00;;;;;;;14.58;100.00;97614.97;5059777;28;20020;-79
2023/05/30 01:12:02;;;;;;;19.13;10.10;;;;;;;14.64;100.00;97614.50;5037776;28;20031;-80
2023/05/30 01:14:50;;;;;;;18.27;9.48;;;;;;;14.69;100.00;97624.91;5066273;28;20024;-80
2023/05/30 01:17:22;;;;;;;19.75;10.52;;;;;;;14.65;100.00;97622.44;5070282;28;20484;-81
2023/05/30 01:20:07;;;;;;;18.38;10.27;;;;;;;14.73;100.00;97629.06;5066748;28;20036;-80
2023/05/30 01:23:04;;;;;;;20.50;10.07;;;;;;;14.76;100.00;97615.38;5068051;28;20033;-80
2023/05/30 01:25:35;;;;;;;52.35;26.85;;;;;;;14.74;100.00;97617.31;5073595;28;20119;-80
2023/05/30 01:28:06;;;;;;;19.02;11.15;;;;;;;14.72;100.00;97613.88;5062887;28;20025;-81
2023/05/30 01:30:34;;;;;;;26.95;10.68;;;;;;;14.66;100.00;97601.75;5061499;28;20047;-80
2023/05/30 01:33:00;;;;;;;24.65;11.15;;;;;;;14.71;100.00;97609.47;5066769;28;20032;-81
2023/05/30 01:35:26;;;;;;;26.15;11.80;;;;;;;14.77;100.00;97611.69;5058629;28;20024;-80
2023/05/30 01:37:51;;;;;;;22.85;11.27;;;;;;;14.85;100.00;97614.66;5060694;28;20025;-81
2023/05/30 01:40:20;;;;;;;23.92;10.43;;;;;;;14.81;100.00;97602.41;5058216;28;20031;-82
2023/05/30 01:42:50;;;;;;;19.27;10.77;;;;;;;14.81;100.00;97602.41;5054555;28;20389;-80
2023/05/30 01:45:19;;;;;;;17.33;9.93;;;;;;;14.86;100.00;97598.38;5065413;28;20016;-81
2023/05/30 01:47:59;;;;;;;31.60;10.15;;;;;;;14.87;100.00;97599.22;5066518;28;20032;-79
2023/05/30 01:50:29;;;;;;;22.42;10.38;;;;;;;14.89;100.00;97592.72;5058785;28;20021;-80
2023/05/30 01:52:59;;;;;;;20.77;10.43;;;;;;;14.90;100.00;97591.75;5064552;28;20024;-80
2023/05/30 01:55:25;;;;;;;23.48;10.13;;;;;;;14.87;100.00;97594.69;5070095;28;20028;-81
2023/05/30 01:57:52;;;;;;;18.50;9.30;;;;;;;14.88;100.00;97595.56;5069340;28;20035;-80
2023/05/30 02:00:18;;;;;;;20.38;9.38;;;;;;;14.77;100.00;97604.47;5036207;28;20101;-81
2023/05/30 02:02:44;;;;;;;19.83;8.75;;;;;;;14.65;100.00;97592.81;5064374;28;20025;-79
2023/05/30 02:05:12;;;;;;;25.55;9.00;;;;;;;14.63;100.00;97602.88;5064053;28;20017;-79
2023/05/30 02:07:38;;;;;;;20.70;8.88;;;;;;;14.60;100.00;97592.34;5061124;28;20024;-80
2023/05/30 02:10:05;;;;;;;17.92;8.77;;;;;;;14.51;100.00;97587.66;5064016;28;20035;-80
2023/05/30 02:12:30;;;;;;;19.17;9.25;;;;;;;14.52;100.00;97586.66;5036795;28;20058;-80
2023/05/30 02:14:56;;;;;;;20.38;9.48;;;;;;;14.55;100.00;97599.88;5060830;28;20033;-81
2023/05/30 02:17:22;;;;;;;23.05;9.50;;;;;;;14.63;100.00;97602.00;5052826;28;20485;-81
2023/05/30 02:19:48;;;;;;;26.83;9.48;;;;;;;14.63;100.00;97600.16;5045943;28;20036;-81
2023/05/30 02:22:14;;;;;;;27.58;9.70;;;;;;;14.61;100.00;97596.72;5063919;28;20450;-81
2023/05/30 02:24:40;;;;;;;24.77;9.25;;;;;;;14.63;100.00;97592.09;5062824;28;20173;-80
2023/05/30 02:27:06;;;;;;;29.95;12.65;;;;;;;14.58;100.00;97593.44;5065898;28;20163;-81
2023/05/30 02:29:32;;;;;;;28.02;7.13;;;;;;;14.54;100.00;97587.44;5065557;28;20111;-80
2023/05/30 02:31:57;;;;;;;23.33;7.55;;;;;;;14.57;100.00;97580.94;5069120;28;20627;-80
2023/05/30 02:34:23;;;;;;;16.45;7.18;;;;;;;14.50;100.00;97571.63;5060793;28;20231;-80
2023/05/30 02:36:48;;;;;;;20.20;7.32;;;;;;;14.53;100.00;97564.16;5056247;28;20029;-80
2023/05/30 02:39:14;;;;;;;18.95;6.93;;;;;;;14.49;100.00;97568.06;5049614;28;20020;-80
2023/05/30 02:41:39;;;;;;;18.35;7.47;;;;;;;14.43;100.00;97551.53;5052035;28;20052;-80
2023/05/30 02:44:06;;;;;;;17.17;7.25;;;;;;;14.41;100.00;97557.03;5038776;28;20028;-81
2023/05/30 02:46:33;;;;;;;17.85;7.95;;;;;;;14.39;100.00;97567.06;5056300;28;20029;-79
2023/05/30 02:48:59;;;;;;;15.65;7.28;;;;;;;14.48;100.00;97574.44;5047985;28;20035;-80
2023/05/30 02:51:25;;;;;;;17.58;7.88;;;;;;;14.49;100.00;97565.38;5035111;28;20029;-80
2023/05/30 02:53:50;;;;;;;16.73;7.93;;;;;;;14.46;100.00;97560.22;5058461;28;20064;-81
2023/05/30 02:56:16;;;;;;;20.65;8.18;;;;;;;14.48;100.00;97568.19;5059834;28;20021;-81
2023/05/30 02:58:42;;;;;;;19.73;8.20;;;;;;;14.51;100.00;97571.50;5062916;28;20029;-80
2023/05/30 03:01:08;;;;;;;29.95;9.35;;;;;;;14.48;100.00;97562.81;5038750;28;20032;-80
2023/05/30 03:03:37;;;;;;;31.70;8.98;;;;;;;14.55;100.00;97572.13;5068949;28;20564;-80
2023/05/30 03:06:04;;;;;;;29.45;8.57;;;;;;;14.55;100.00;97572.97;5071595;28;20016;-79
2023/05/30 03:08:30;;;;;;;21.42;8.85;;;;;;;14.48;100.00;97577.13;5055178;28;20024;-79
2023/05/30 03:10:56;;;;;;;27.08;10.65;;;;;;;14.35;100.00;97570.97;5049790;28;20028;-81
2023/05/30 03:13:21;;;;;;;27.63;9.77;;;;;;;14.32;100.00;97581.06;5058732;28;20062;-80
2023/05/30 03:15:47;;;;;;;20.25;9.35;;;;;;;14.30;100.00;97570.44;5043418;28;20079;-80
2023/05/30 03:18:12;;;;;;;23.67;8.75;;;;;;;14.34;100.00;97580.00;5057122;28;20074;-80
2023/05/30 03:20:38;;;;;;;25.33;8.07;;;;;;;14.35;100.00;97584.44;5060835;28;20461;-80
2023/05/30 03:23:04;;;;;;;30.23;8.85;;;;;;;14.42;100.00;97584.81;5038745;28;20381;-80
2023/05/30 03:25:29;;;;;;;28.38;8.32;;;;;;;14.42;100.00;97583.00;5063195;28;20036;-81
2023/05/30 03:27:55;;;;;;;18.75;7.35;;;;;;;14.49;100.00;97581.53;5064590;28;20040;-81
2023/05/30 03:30:25;;;;;;;28.30;8.82;;;;;;;14.52;100.00;97583.09;5060167;28;20412;-81
2023/05/30 03:32:50;;;;;;;17.85;7.82;;;;;;;14.51;100.00;97566.13;5041361;28;20397;-81
2023/05/30 03:35:16;;;;;;;23.38;8.95;;;;;;;14.63;100.00;97584.03;5050502;28;20116;-79
2023/05/30 03:37:42;;;;;;;28.20;9.10;;;;;;;14.62;100.00;97574.22;5054743;28;20026;-78
2023/05/30 03:40:10;;;;;;;25.38;8.63;;;;;;;14.65;100.00;97573.13;5060836;28;20080;-79
2023/05/30 03:42:35;;;;;;;22.23;9.07;;;;;;;14.78;100.00;97584.66;5047934;28;20043;-80
2023/05/30 03:45:01;;;;;;;27.77;10.10;;;;;;;14.84;100.00;97567.16;5099191;28;20469;-78
2023/05/30 03:47:27;;;;;;;27.50;10.23;;;;;;;14.89;100.00;97570.34;5039286;28;20059;-80
2023/05/30 03:49:52;;;;;;;28.73;10.40;;;;;;;14.82;100.00;97579.88;5066119;28;20028;-80
2023/05/30 03:52:18;;;;;;;23.05;9.63;;;;;;;14.84;100.00;97586.00;5059105;28;20086;-79
2023/05/30 03:54:44;;;;;;;20.88;8.68;;;;;;;14.89;100.00;97586.53;5066297;28;20055;-79
2023/05/30 03:57:10;;;;;;;24.30;9.32;;;;;;;14.98;100.00;97578.53;5036790;28;20036;-79
2023/05/30 03:59:35;;;;;;;26.35;9.50;;;;;;;14.89;100.00;97571.19;5061052;28;20020;-80
2023/05/30 04:02:04;;;;;;;22.83;8.13;;;;;;;14.86;100.00;97574.13;5056271;28;20036;-81
2023/05/30 04:04:39;;;;;;;24.42;8.65;;;;;;;14.96;100.00;97561.66;5062045;28;20046;-82
2023/05/30 04:07:06;;;;;;;19.02;8.32;;;;;;;15.01;100.00;97580.16;5040591;28;20476;-79
2023/05/30 04:09:31;;;;;;;22.92;9.07;;;;;;;15.11;100.00;97586.50;5058506;28;20021;-79
2023/05/30 04:11:57;;;;;;;23.95;8.10;;;;;;;15.19;100.00;97579.56;5057857;28;20063;-79
2023/05/30 04:14:22;;;;;;;18.70;8.68;;;;;;;15.23;100.00;97568.53;5059714;28;20459;-78
2023/05/30 04:16:55;;;;;;;16.90;8.32;;;;;;;15.25;100.00;97567.44;5065952;28;20043;-79
2023/05/30 04:19:20;;;;;;;19.80;8.05;;;;;;;15.26;100.00;97561.03;5055804;28;20040;-79
2023/05/30 04:21:46;;;;;;;21.02;8.07;;;;;;;15.35;100.00;97560.28;5057597;28;20035;-79
2023/05/30 04:24:12;;;;;;;19.73;9.13;;;;;;;15.36;100.00;97559.31;5057356;28;20037;-78
2023/05/30 04:26:38;;;;;;;21.02;8.45;;;;;;;15.32;100.00;97562.41;5061893;28;20116;-78
2023/05/30 04:29:03;;;;;;;27.10;8.68;;;;;;;15.31;100.00;97544.50;5057579;28;20471;-80
2023/05/30 04:31:29;;;;;;;26.42;8.43;;;;;;;15.34;100.00;97549.66;5044823;28;20052;-79
2023/05/30 04:33:55;;;;;;;23.57;10.33;;;;;;;15.33;100.00;97559.56;5063655;28;20481;-82
2023/05/30 04:36:20;;;;;;;30.20;9.90;;;;;;;15.38;100.00;97551.13;5057156;28;20060;-84
2023/05/30 04:38:48;;;;;;;22.13;9.38;;;;;;;15.44;100.00;97558.72;5041508;28;20523;-81
2023/05/30 04:41:18;;;;;;;34.63;16.48;;;;;;;15.38;100.00;97551.94;5043003;28;20047;-82
2023/05/30 04:43:52;;;;;;;20.30;9.65;;;;;;;15.32;100.00;97560.53;5061917;28;20100;-80
2023/05/30 04:46:21;;;;;;;27.75;9.88;;;;;;;15.14;100.00;97562.03;5043166;28;20029;-79
2023/05/30 04:48:48;;;;;;;30.00;10.98;;;;;;;15.00;100.00;97565.81;5056739;28;20399;-82
2023/05/30 04:51:14;;;;;;;22.88;10.65;;;;;;;15.06;100.00;97570.72;5057859;28;20075;-79
2023/05/30 04:53:40;;;;;;;28.80;10.07;;;;;;;15.10;100.00;97572.19;5038025;28;20033;-82
2023/05/30 04:56:06;;;;;;;23.05;10.05;;;;;;;15.16;100.00;97582.47;5050241;28;20021;-81
2023/05/30 04:58:32;;;;;;;24.80;9.68;;;;;;;15.32;100.00;97574.00;5062799;28;20099;-82
2023/05/30 05:00:58;;;;;;;23.60;10.73;;;;;;;15.37;100.00;97563.72;5037437;28;20116;-81
2023/05/30 05:03:24;;;;;;;22.73;10.75;;;;;;;15.35;100.00;97564.84;5050771;28;20033;-82
2023/05/30 05:05:50;;;;;;;20.50;9.88;;;;;;;15.24;100.00;97560.31;5057971;28;20025;-81
2023/05/30 05:08:16;;;;;;;22.38;10.05;;;;;;;15.11;100.00;97564.97;5057545;28;20528;-81
2023/05/30 05:10:41;;;;;;;23.98;10.10;;;;;;;15.25;100.00;97583.59;5043309;28;20075;-82
2023/05/30 05:13:07;;;;;;;23.48;11.20;;;;;;;15.39;100.00;97586.03;5050062;28;20021;-81
2023/05/30 05:15:32;;;;;;;18.13;9.30;;;;;;;15.26;100.00;97579.06;5044971;28;20029;-81
2023/05/30 05:17:58;;;;;;;20.20;10.13;;;;;;;15.27;100.00;97584.31;5073745;28;20093;-82
2023/05/30 05:20:24;;;;;;;21.25;10.43;;;;;;;15.58;100.00;97590.81;5075153;28;20020;-81
2023/05/30 05:22:50;;;;;;;18.90;9.55;;;;;;;15.50;100.00;97572.59;5045949;28;20020;-82
2023/05/30 05:25:15;;;;;;;14.38;8.50;;;;;;;15.37;100.00;97574.53;5053827;28;20024;-82
2023/05/30 05:27:41;;;;;;;18.20;8.68;;;;;;;15.38;100.00;97583.47;5045043;28;20396;-82
2023/05/30 05:30:08;;;;;;;19.05;9.35;;;;;;;15.55;100.00;97581.16;5063193;28;20029;-82
2023/05/30 05:32:36;;;;;;;17.80;9.77;;;;;;;15.69;100.00;97577.31;5051988;28;20496;-82
2023/05/30 05:35:02;;;;;;;18.55;8.77;;;;;;;15.76;100.00;97577.66;5037187;28;20033;-81
2023/05/30 05:37:28;;;;;;;19.33;9.48;;;;;;;15.92;100.00;97592.47;5036979;28;20089;-81
2023/05/30 05:39:53;;;;;;;16.08;8.40;;;;;;;15.98;100.00;97596.50;5039247;28;20111;-80
2023/05/30 05:42:19;;;;;;;15.27;8.13;;;;;;;15.96;100.00;97599.34;5073555;28;20396;-81
2023/05/30 05:44:44;;;;;;;16.08;8.27;;;;;;;15.88;100.00;97592.84;5057567;28;20027;-81
2023/05/30 05:47:10;;;;;;;15.23;8.38;;;;;;;15.68;100.00;97592.66;5069185;28;20032;-82
2023/05/30 05:49:35;;;;;;;15.73;9.18;;;;;;;15.62;100.00;97598.53;5045982;28;20115;-82
2023/05/30 05:52:01;;;;;;;18.83;9.02;;;;;;;15.52;100.00;97616.44;5056754;28;20021;-82
2023/05/30 05:54:27;;;;;;;16.58;9.43;;;;;;;15.46;100.00;97625.00;5069352;28;20063;-83
2023/05/30 05:56:52;;;;;;;25.25;10.02;;;;;;;15.46;100.00;97627.69;5047571;28;20049;-85
2023/05/30 05:59:18;;;;;;;23.08;12.65;;;;;;;15.47;100.00;97632.09;5071644;28;20549;-86
2023/05/30 06:01:44;;;;;;;22.88;12.38;;;;;;;15.37;100.00;97635.66;5057823;28;20031;-84
2023/05/30 06:04:11;;;;;;;22.75;9.65;;;;;;;15.37;100.00;97643.75;5037000;28;20033;-83
2023/05/30 06:06:36;;;;;;;3.90;0.77;;;;;;;15.40;100.00;97644.34;5070150;28;20070;-82
2023/05/30 06:09:02;;;;;;;1.23;1.13;;;;;;;15.41;100.00;97642.53;5043745;28;20473;-82
2023/05/30 06:11:28;;;;;;;1.05;0.93;;;;;;;15.43;100.00;97649.50;5048781;28;20024;-82
2023/05/30 06:13:53;;;;;;;9.55;2.83;;;;;;;15.47;100.00;97650.97;5063873;28;20033;-82
2023/05/30 06:16:19;;;;;;;3.10;1.55;;;;;;;15.53;100.00;97658.63;5064280;28;20032;-81
2023/05/30 06:18:44;;;;;;;4.13;1.50;;;;;;;15.59;100.00;97663.50;5074181;28;20104;-79
2023/05/30 06:21:10;;;;;;;1.10;1.08;;;;;;;15.60;100.00;97664.34;5057193;28;20036;-78
2023/05/30 06:23:36;;;;;;;0.73;0.70;;;;;;;15.70;100.00;97676.13;5071106;28;20039;-78
2023/05/30 06:26:02;;;;;;;0.45;0.45;;;;;;;15.76;100.00;97686.41;5072324;28;20029;-79
2023/05/30 06:28:27;;;;;;;3.15;1.13;;;;;;;15.77;100.00;97674.66;5072410;28;20036;-79
2023/05/30 06:30:53;;;;;;;1.30;1.20;;;;;;;15.80;100.00;97678.94;5053023;28;20506;-78
2023/05/30 06:33:20;;;;;;;1.65;0.85;;;;;;;15.89;100.00;97680.88;5052479;28;20058;-78
2023/05/30 06:35:46;;;;;;;1.00;0.95;;;;;;;15.98;100.00;97682.84;5042385;28;20242;-79
2023/05/30 06:38:12;;;;;;;0.85;0.85;;;;;;;16.05;100.00;97673.25;5052232;28;20138;-78
2023/05/30 06:40:37;;;;;;;0.75;0.75;;;;;;;16.21;100.00;97676.44;5060134;28;20052;-79
2023/05/30 06:43:03;;;;;;;2.30;1.27;;;;;;;16.14;100.00;97672.50;5059928;28;20489;-79
2023/05/30 06:45:28;;;;;;;4.82;2.03;;;;;;;16.17;100.00;97675.81;5061784;28;20020;-79
2023/05/30 06:47:54;;;;;;;3.42;1.60;;;;;;;16.05;100.00;97670.56;5071668;28;20115;-79
2023/05/30 06:50:20;;;;;;;2.05;1.27;;;;;;;16.14;100.00;97675.22;5051989;28;20024;-80
2023/05/30 06:52:45;;;;;;;1.13;1.00;;;;;;;15.93;100.00;97671.56;5054813;28;20567;-79
2023/05/30 06:55:10;;;;;;;2.22;1.27;;;;;;;15.93;100.00;97685.91;5054788;28;20021;-80
2023/05/30 06:57:39;;;;;;;1.25;1.00;;;;;;;15.98;100.00;97696.31;5056222;28;20455;-80
2023/05/30 07:00:05;;;;;;;0.40;0.40;;;;;;;16.05;100.00;97692.16;5044707;28;20025;-79
2023/05/30 07:02:31;;;;;;;1.23;0.55;;;;;;;16.03;100.00;97689.56;5051554;28;20033;-80
2023/05/30 07:04:56;;;;;;;1.58;1.30;;;;;;;16.06;100.00;97694.72;5061646;28;20031;-79
2023/05/30 07:07:21;;;;;;;1.17;1.08;;;;;;;16.06;100.00;97696.53;5042135;28;20033;-80
2023/05/30 07:09:47;;;;;;;2.97;1.38;;;;;;;16.06;100.00;97697.41;5044291;28;20029;-79
2023/05/30 07:12:13;;;;;;;0.80;0.65;;;;;;;15.99;100.00;97688.13;5036853;28;20065;-80
2023/05/30 07:14:39;;;;;;;0.68;0.50;;;;;;;15.90;100.00;97688.00;5053202;28;20055;-80
2023/05/30 07:17:07;;;;;;;0.17;0.10;;;;;;;16.03;100.00;97699.50;5054736;28;20020;-80
2023/05/30 07:19:32;;;;;;;0.85;0.50;;;;;;;16.10;100.00;97708.81;5054938;28;20085;-80
2023/05/30 07:21:58;;;;;;;1.45;0.95;;;;;;;16.27;100.00;97702.91;5044956;28;20029;-79
2023/05/30 07:24:23;;;;;;;1.05;0.98;;;;;;;16.48;100.00;97705.66;5056009;28;20025;-80
2023/05/30 07:26:51;;;;;;;0.60;0.60;;;;;;;16.62;100.00;97694.59;5051414;28;20025;-80
2023/05/30 07:29:18;;;;;;;3.38;1.70;;;;;;;16.64;100.00;97688.06;5049894;28;20021;-80
2023/05/30 07:31:43;;;;;;;0.13;0.13;;;;;;;16.56;100.00;97676.19;5049796;28;20105;-81
2023/05/30 07:34:09;;;;;;;2.38;1.17;;;;;;;16.51;100.00;97660.38;5037229;28;20116;-80
2023/05/30 07:36:35;;;;;;;1.23;0.60;;;;;;;16.36;100.00;97664.34;5049740;28;20032;-81
2023/05/30 07:39:01;;;;;;;0.80;0.57;;;;;;;16.39;100.00;97674.91;5034342;28;20029;-80
2023/05/30 07:41:26;;;;;;;1.55;1.02;;;;;;;16.56;100.00;97674.38;5064299;28;20035;-80
2023/05/30 07:43:51;;;;;;;0.55;0.55;;;;;;;16.63;100.00;97683.69;5071185;28;20059;-80
2023/05/30 07:46:18;;;;;;;1.92;0.73;;;;;;;16.62;100.00;97676.56;5072080;28;20507;-80
2023/05/30 07:48:43;;;;;;;2.75;1.15;;;;;;;16.56;100.00;97673.50;5039278;28;20033;-80
2023/05/30 07:51:10;;;;;;;0.63;0.63;;;;;;;16.63;100.00;97678.28;5059653;28;20024;-79
2023/05/30 07:53:36;;;;;;;1.90;1.35;;;;;;;16.58;100.00;97674.25;5052768;28;20118;-80
2023/05/30 07:56:02;;;;;;;0.70;0.65;;;;;;;16.59;100.00;97665.13;5053757;28;20123;-79
2023/05/30 07:58:28;;;;;;;0.60;0.57;;;;;;;16.61;100.00;97674.81;5051359;28;20036;-80
2023/05/30 08:00:54;;;;;;;1.67;1.33;;;;;;;16.63;100.00;97672.88;5065302;28;20514;-80
2023/05/30 08:03:19;;;;;;;0.98;0.73;;;;;;;16.63;100.00;97662.06;5053834;28;20542;-80
2023/05/30 08:05:46;;;;;;;0.80;0.80;;;;;;;16.53;100.00;97666.50;5054135;28;20514;-80
2023/05/30 08:08:13;;;;;;;0.73;0.70;;;;;;;16.48;100.00;97673.25;5070509;28;20036;-80
2023/05/30 08:10:38;;;;;;;0.15;0.15;;;;;;;16.42;100.00;97671.94;5050679;28;20029;-79
2023/05/30 08:13:04;;;;;;;3.20;0.82;;;;;;;16.39;100.00;97684.84;5041405;28;20404;-79
2023/05/30 08:15:29;;;;;;;1.02;0.90;;;;;;;16.41;100.00;97694.53;5034529;28;20496;-79
2023/05/30 08:18:00;;;;;;;0.68;0.68;;;;;;;16.44;100.00;97694.25;5041128;28;20028;-79
2023/05/30 08:20:26;;;;;;;1.13;1.02;;;;;;;16.53;100.00;97701.59;5052558;28;20025;-80
2023/05/30 08:22:51;;;;;;;0.75;0.75;;;;;;;16.67;100.00;97700.50;5049046;28;20130;-80
2023/05/30 08:25:23;;;;;;;6.28;0.95;;;;;;;16.68;100.00;97684.13;5054490;28;20028;-80
2023/05/30 08:27:50;;;;;;;1.30;0.63;;;;;;;16.63;100.00;97678.28;5073255;28;20557;-80
2023/05/30 08:30:16;;;;;;;0.45;0.32;;;;;;;16.46;100.00;97673.38;5055341;28;20041;-78
2023/05/30 08:32:41;;;;;;;0.88;0.70;;;;;;;16.55;100.00;97669.09;5066574;28;20021;-80
2023/05/30 08:35:08;;;;;;;2.22;0.98;;;;;;;16.67;100.00;97660.81;5036813;28;20063;-78
2023/05/30 08:37:33;;;;;;;1.75;0.93;;;;;;;16.80;100.00;97664.19;5051990;28;20020;-79
2023/05/30 08:39:59;;;;;;;2.83;0.57;;;;;;;16.98;100.00;97661.75;5052652;28;20456;-79
2023/05/30 08:42:25;;;;;;;0.50;0.32;;;;;;;17.17;100.00;97652.91;5039578;28;20025;-79
2023/05/30 08:44:51;;;;;;;2.72;0.82;;;;;;;17.33;100.00;97653.28;5069711;28;20024;-79
2023/05/30 08:47:16;;;;;;;2.83;1.52;;;;;;;17.51;100.00;97646.25;5075961;28;20032;-79
2023/05/30 08:49:44;;;;;;;0.95;0.80;;;;;;;17.70;100.00;97643.69;5045880;28;20082;-79
2023/05/30 08:52:13;;;;;;;2.38;1.08;;;;;;;17.73;100.00;97640.69;5044206;28;20166;-78
2023/05/30 08:55:07;;;;;;;0.82;0.82;;;;;;;17.82;100.00;97642.59;5073967;28;20506;-79
2023/05/30 08:58:08;;;;;;;0.52;0.52;;;;;;;18.02;100.00;97642.66;5057224;28;20027;-80
2023/05/30 09:00:35;;;;;;;1.40;0.93;;;;;;;18.15;100.00;97629.72;5073796;28;20034;-80
2023/05/30 09:03:05;;;;;;;1.55;0.80;;;;;;;18.26;100.00;97635.84;5060022;28;20111;-80
2023/05/30 09:05:32;;;;;;;2.38;1.17;;;;;;;18.18;100.00;97618.59;5054886;28;20423;-80
2023/05/30 09:07:58;;;;;;;1.42;1.17;;;;;;;18.38;100.00;97613.06;5055299;28;20032;-80
2023/05/30 09:10:24;;;;;;;0.63;0.63;;;;;;;18.56;100.00;97615.06;5053537;28;20028;-80
2023/05/30 09:12:49;;;;;;;0.82;0.65;;;;;;;18.67;100.00;97617.66;5073913;28;20020;-80
2023/05/30 09:15:15;;;;;;;3.15;1.05;;;;;;;18.76;100.00;97622.22;5074576;28;20107;-80
2023/05/30 09:17:41;;;;;;;2.63;0.75;;;;;;;18.80;100.00;97616.34;5073906;28;20427;-81
2023/05/30 09:20:09;;;;;;;0.47;0.47;;;;;;;18.83;100.00;97607.94;5059501;28;20029;-82
2023/05/30 09:22:36;;;;;;;0.55;0.55;;;;;;;18.84;100.00;97609.66;5054644;28;20052;-81
2023/05/30 09:25:03;;;;;;;0.77;0.77;;;;;;;19.03;100.00;97614.19;5066775;28;20158;-80
2023/05/30 09:27:34;;;;;;;0.88;0.85;;;;;;;19.07;100.00;97620.19;5073334;28;20090;-81
2023/05/30 09:30:09;;;;;;;1.27;0.95;;;;;;;19.10;100.00;97619.88;5073479;28;20492;-81
2023/05/30 09:33:01;;;;;;;0.60;0.60;;;;;;;18.85;100.00;97614.09;5056750;28;20041;-81
2023/05/30 09:35:27;;;;;;;2.85;1.42;;;;;;;18.74;100.00;97627.78;5043028;28;20033;-82
2023/05/30 09:37:55;;;;;;;2.28;1.85;;;;;;;18.59;100.00;97621.06;5057185;28;20029;-83
2023/05/30 09:40:22;;;;;;;0.93;0.90;;;;;;;18.65;100.00;97620.50;5057616;28;20032;-82
2023/05/30 09:42:53;;;;;;;0.38;0.38;;;;;;;18.54;100.00;97612.53;5059463;28;20017;-82
2023/05/30 09:45:23;;;;;;;0.60;0.60;;;;;;;18.70;100.00;97610.06;5058674;28;20099;-82
2023/05/30 09:47:51;;;;;;;2.08;0.75;;;;;;;18.75;100.00;97598.81;5044794;28;20064;-82
2023/05/30 09:50:17;;;;;;;0.30;0.25;;;;;;;18.92;100.00;97607.06;5057036;28;20580;-82
2023/05/30 09:52:44;;;;;;;0.30;0.30;;;;;;;19.24;100.00;97606.72;5073189;28;20089;-83
2023/05/30 09:55:12;;;;;;;0.20;0.20;;;;;;;19.41;100.00;97599.69;5046338;28;20033;-82
2023/05/30 09:57:40;;;;;;;0.17;0.17;;;;;;;19.27;100.00;97586.56;5055744;28;20044;-82
2023/05/30 10:00:13;;;;;;;0.68;0.65;;;;;;;19.31;100.00;97569.88;5047141;28;20032;-82
2023/05/30 10:02:39;;;;;;;0.38;0.38;;;;;;;19.39;100.00;97572.72;5064724;28;20089;-83
2023/05/30 10:05:07;;;;;;;0.50;0.30;;;;;;;19.54;100.00;97564.94;5060027;28;20031;-82
2023/05/30 10:07:33;;;;;;;0.75;0.75;;;;;;;19.66;100.00;97571.84;5040413;28;20416;-83
2023/05/30 10:09:59;;;;;;;0.50;0.50;;;;;;;19.85;100.00;97568.19;5062708;28;20024;-82
2023/05/30 10:12:24;;;;;;;0.40;0.40;;;;;;;20.17;100.00;97563.13;5077490;28;20099;-82
2023/05/30 10:14:50;;;;;;;2.85;1.00;;;;;;;20.46;100.00;97554.75;5077494;28;20496;-82
2023/05/30 10:17:18;;;;;;;0.73;0.63;;;;;;;20.40;100.00;97544.50;5062942;28;20028;-82
2023/05/30 10:20:01;;;;;;;4.47;1.20;;;;;;;20.01;100.00;97542.09;5077153;28;20012;-82
2023/05/30 10:22:32;;;;;;;2.30;1.10;;;;;;;20.16;100.00;97541.53;5060937;28;20454;-82
2023/05/30 10:24:59;;;;;;;2.10;0.47;;;;;;;20.33;100.00;97540.72;5040573;28;20060;-82
2023/05/30 10:27:28;;;;;;;0.45;0.45;;;;;;;20.37;100.00;97550.25;5036990;28;20109;-82
2023/05/30 10:30:08;;;;;;;0.90;0.77;;;;;;;20.05;100.00;97541.78;5046366;28;20033;-83
2023/05/30 10:32:39;;;;;;;1.75;1.08;;;;;;;19.97;100.00;97548.81;5059420;28;20191;-83
2023/05/30 10:35:08;;;;;;;1.75;0.88;;;;;;;20.31;100.00;97548.16;5061862;28;20033;-82
2023/05/30 10:37:36;;;;;;;0.68;0.68;;;;;;;20.53;100.00;97532.25;5079164;28;20105;-83
2023/05/30 10:40:11;;;;;;;1.05;0.55;;;;;;;20.62;100.00;97535.03;5060573;28;20146;-83
2023/05/30 10:42:38;;;;;;;0.60;0.50;;;;;;;20.59;100.00;97519.03;5072901;28;20021;-83
2023/05/30 10:45:14;;;;;;;0.80;0.47;;;;;;;20.77;100.00;97509.81;5048789;28;20411;-83
2023/05/30 10:47:42;;;;;;;0.50;0.50;;;;;;;21.02;100.00;97521.72;5059348;28;20029;-84
2023/05/30 10:50:14;;;;;;;1.35;0.57;;;;;;;21.00;100.00;97502.84;5079991;28;20086;-81
2023/05/30 10:52:41;;;;;;;0.65;0.65;;;;;;;20.61;100.00;97476.25;5060348;28;20040;-83
2023/05/30 10:55:10;;;;;;;1.75;0.80;;;;;;;20.87;100.00;97490.69;5056563;28;20033;-83
2023/05/30 10:57:36;;;;;;;0.52;0.47;;;;;;;21.22;100.00;97489.75;5069172;28;20041;-82
2023/05/30 11:00:22;;;;;;;0.82;0.50;;;;;;;21.63;100.00;97491.59;5052031;28;20467;-81
2023/05/30 11:02:53;;;;;;;1.60;1.20;;;;;;;21.85;100.00;97466.47;5043162;28;20025;-84
2023/05/30 11:05:21;;;;;;;0.40;0.40;;;;;;;21.73;100.00;97467.81;5071438;28;20032;-85
2023/05/30 11:07:47;;;;;;;1.73;1.08;;;;;;;22.67;100.00;97451.94;5049991;28;20045;-78
2023/05/30 11:10:14;;;;;;;3.10;1.83;;;;;;;23.76;100.00;97458.41;5062337;28;20425;-80
2023/05/30 11:12:44;;;;;;;2.58;0.70;;;;;;;25.01;100.00;97464.25;5062182;28;20067;-79
2023/05/30 11:15:14;;;;;;;0.50;0.50;;;;;;;26.16;100.00;97448.97;5041084;28;20086;-83
2023/05/30 11:17:40;;;;;;;0.25;0.25;;;;;;;26.77;100.00;97430.97;5069030;28;20055;-81
2023/05/30 11:20:24;;;;;;;0.35;0.35;;;;;;;27.33;92.00;97416.16;5051492;28;20062;-82